METAR ET TAF INFORMATION
METAR FOR ENBS
ADDS - METARS form results

(0545 UTC 16 October 2019)
Data provider http://aviationweather.gov/metar/data/
 
METAR text: ENBS 160520Z 21004KT CAVOK M02/M03 Q1017
Conditions at: ENBS (BATSFJORD , NO) observed 0520 UTC 16 October 2019
Temperature: -2.0°C (28°F)
Dewpoint: -3.0°C (27°F) [RH = 93%]
Pressure (altimeter): 30.03 inches Hg (1017.0 mb)
Winds: from the SSW (210 degrees) at 5 MPH (4 knots; 2.1 m/s)
Visibility: 6 or more miles (10+ km)
Ceiling: ceiling and visibility are OK
Clouds: unknown
Weather: no significant weather observed at this time

METAR text: ENBS 160450Z VRB02KT CAVOK M02/M03 Q1017
Conditions at: ENBS (BATSFJORD , NO) observed 0450 UTC 16 October 2019
Temperature: -2.0°C (28°F)
Dewpoint: -3.0°C (27°F) [RH = 93%]
Pressure (altimeter): 30.03 inches Hg (1017.0 mb)
Winds: variable direction winds at 2 MPH (2 knots; 1.0 m/s)
Visibility: 6 or more miles (10+ km)
Ceiling: ceiling and visibility are OK
Clouds: unknown
Weather: no significant weather observed at this time

 AÉROPORT DE AÉROPORT

 INFORMATIONS DE PISTE
Piste 03 Longueur de la piste 3281 ft Largeur de la piste 98 ft
Élévation de la piste 480 ft Seuil de la piste déplacés 0 ft Runway heading 44
Piste 21 Longueur de la piste 3281 ft Largeur de la piste 98 ft
Élévation de la piste 489 ft Seuil de la piste déplacés 0 ft Runway heading 224

 AÉROPORT FRÉQUENCES
Type AFIS Nom INFO Féquence 123.4 MHZ

 SIDA DE NAVIGATION
Type NDB Nom Batsfjord Féquence 348 KHZ



Powered by Virtual Airlines Manager [v2.6.2]